Time;durP1;ratioP1;P1;durP2;ratioP2;P2;SDS_P1;SDS_P2;PMS_P1;PMS_P2;Temp;Humidity;BMP_temperature;BMP_pressure;BME280_temperature;BME280_humidity;BME280_pressure;Samples;Min_cycle;Max_cycle;Signal;HPM_P1;HPM_P2
2023/06/23 00:00:20;;;;;;;27.10;18.77;;;;;;;23.78;88.25;100944.34;5020537;28;20037;-82
2023/06/23 00:02:45;;;;;;;28.05;19.42;;;;;;;23.74;88.51;100940.31;5019336;28;20069;-83
2023/06/23 00:05:11;;;;;;;26.23;19.73;;;;;;;23.61;89.09;100929.25;5010915;28;20030;-83
2023/06/23 00:07:37;;;;;;;24.85;20.02;;;;;;;23.66;89.28;100931.38;5009515;28;20041;-83
2023/06/23 00:10:06;;;;;;;30.35;20.58;;;;;;;23.53;89.69;100932.16;5009576;28;20042;-83
2023/06/23 00:12:36;;;;;;;30.85;19.17;;;;;;;23.39;90.50;100930.38;5009883;28;20120;-82
2023/06/23 00:15:07;;;;;;;24.73;19.17;;;;;;;23.30;90.90;100937.88;5009683;28;20026;-83
2023/06/23 00:17:33;;;;;;;27.52;19.58;;;;;;;23.35;90.56;100951.00;5009214;28;20045;-83
2023/06/23 00:19:59;;;;;;;37.10;20.35;;;;;;;23.29;90.67;100944.44;5009722;28;20092;-82
2023/06/23 00:22:25;;;;;;;46.78;21.05;;;;;;;23.33;90.82;100947.63;5009781;28;20038;-82
2023/06/23 00:24:51;;;;;;;35.35;20.30;;;;;;;23.30;90.93;100948.84;5009328;28;20042;-83
2023/06/23 00:27:16;;;;;;;32.20;19.35;;;;;;;23.33;91.42;100947.63;5009633;28;20030;-85
2023/06/23 00:29:42;;;;;;;37.70;21.08;;;;;;;23.33;91.44;100946.78;5000832;28;20489;-83
2023/06/23 00:32:07;;;;;;;33.25;21.33;;;;;;;23.30;91.88;100939.78;4989986;28;20026;-84
2023/06/23 00:34:33;;;;;;;33.83;21.40;;;;;;;23.42;91.95;100957.44;4990085;28;20116;-83
2023/06/23 00:36:58;;;;;;;29.20;21.58;;;;;;;23.39;92.37;100943.22;4990352;28;20379;-81
2023/06/23 00:39:24;;;;;;;34.20;23.23;;;;;;;23.53;92.31;100954.13;4990119;28;20038;-82
2023/06/23 00:41:50;;;;;;;27.27;21.00;;;;;;;23.53;92.27;100954.13;4992480;28;20037;-82
2023/06/23 00:44:16;;;;;;;32.50;20.90;;;;;;;23.53;92.20;100947.78;4994146;28;20039;-82
2023/06/23 00:46:43;;;;;;;26.60;20.25;;;;;;;23.54;91.66;100938.50;4994333;28;20038;-82
2023/06/23 00:49:10;;;;;;;32.85;22.75;;;;;;;23.58;91.42;100945.25;4995082;28;20100;-81
2023/06/23 00:51:36;;;;;;;33.35;21.02;;;;;;;23.58;90.68;100951.59;4995444;28;20047;-82
2023/06/23 00:54:04;;;;;;;38.72;21.88;;;;;;;23.51;90.89;100948.00;4994496;28;20494;-82
2023/06/23 00:56:30;;;;;;;39.22;20.40;;;;;;;23.50;90.71;100949.03;4997251;28;20042;-81
2023/06/23 00:58:56;;;;;;;34.33;20.75;;;;;;;23.44;91.48;100941.59;4999559;28;20050;-81
2023/06/23 01:01:22;;;;;;;30.33;21.02;;;;;;;23.39;91.63;100935.88;4995433;28;20479;-83
2023/06/23 01:03:48;;;;;;;33.30;21.40;;;;;;;23.40;91.90;100945.78;4993621;28;20546;-83
2023/06/23 01:06:37;;;;;;;31.70;21.00;;;;;;;23.41;92.16;100950.25;4992307;28;20045;-82
2023/06/23 01:09:12;;;;;;;26.58;21.42;;;;;;;23.40;92.19;100943.03;4993291;28;20060;-83
2023/06/23 01:12:17;;;;;;;33.65;21.75;;;;;;;23.42;92.25;100940.97;4993593;28;20043;-83
2023/06/23 01:15:05;;;;;;;30.63;21.25;;;;;;;23.38;92.99;100944.25;4951548;29;20462;-82
2023/06/23 01:17:36;;;;;;;35.28;22.88;;;;;;;23.43;93.20;100939.91;4951499;29;20032;-82
2023/06/23 01:23:18;;;;;;;33.85;22.00;;;;;;;23.45;93.88;100951.53;4950873;29;20167;-81
2023/06/23 01:25:53;;;;;;;29.63;22.70;;;;;;;23.53;94.02;100948.63;4951109;29;20053;-83
2023/06/23 01:28:45;;;;;;;27.33;22.33;;;;;;;23.59;94.29;100952.47;4951141;29;20514;-82
2023/06/23 01:31:15;;;;;;;34.47;20.75;;;;;;;23.57;95.05;100943.59;4951064;29;20036;-81
2023/06/23 01:33:48;;;;;;;29.73;21.48;;;;;;;23.65;96.30;100952.50;4950899;29;20039;-81
2023/06/23 01:36:29;;;;;;;32.58;23.55;;;;;;;23.66;97.58;100945.97;4952408;29;20039;-82
2023/06/23 01:39:01;;;;;;;26.13;20.73;;;;;;;23.64;97.73;100945.31;4959663;29;20035;-81
2023/06/23 01:41:32;;;;;;;25.77;21.38;;;;;;;23.66;98.83;100959.72;4952246;29;20043;-82
2023/06/23 01:44:01;;;;;;;25.65;21.52;;;;;;;23.61;99.31;100956.69;4951966;29;20043;-84
2023/06/23 01:46:34;;;;;;;26.67;23.00;;;;;;;23.59;99.76;100953.31;4953132;29;20043;-82
2023/06/23 01:49:07;;;;;;;29.00;24.40;;;;;;;23.67;99.85;100961.38;4952918;29;20558;-81
2023/06/23 01:51:34;;;;;;;25.73;20.88;;;;;;;23.73;99.25;100966.06;4971472;28;20098;-82
2023/06/23 01:54:01;;;;;;;24.13;21.63;;;;;;;23.73;99.73;100959.72;4960929;28;20116;-83
2023/06/23 01:56:27;;;;;;;36.67;22.52;;;;;;;23.63;100.00;100951.88;4978056;28;20050;-81
2023/06/23 01:58:56;;;;;;;27.35;21.92;;;;;;;23.70;100.00;100960.97;4986002;28;20055;-82
2023/06/23 02:01:24;;;;;;;24.42;21.88;;;;;;;23.71;100.00;100964.59;4979215;28;20027;-84
2023/06/23 02:03:50;;;;;;;29.08;22.08;;;;;;;23.60;100.00;100952.28;4977874;28;20062;-82
2023/06/23 02:06:17;;;;;;;28.13;22.88;;;;;;;23.59;100.00;100956.06;4973338;28;20110;-82
2023/06/23 02:08:43;;;;;;;26.70;23.08;;;;;;;23.63;100.00;100951.88;4973326;28;20039;-81
2023/06/23 02:11:10;;;;;;;38.33;22.75;;;;;;;23.65;100.00;100960.75;4973235;28;20035;-83
2023/06/23 02:13:38;;;;;;;29.20;23.42;;;;;;;23.70;100.00;100968.38;4973157;28;20035;-83
2023/06/23 02:16:07;;;;;;;29.40;22.95;;;;;;;23.70;100.00;100960.97;4972027;28;20121;-82
2023/06/23 02:18:35;;;;;;;27.63;23.17;;;;;;;23.71;100.00;100959.94;4972824;28;20034;-82
2023/06/23 02:21:02;;;;;;;31.10;23.13;;;;;;;23.73;100.00;100960.56;4972752;28;20054;-82
2023/06/23 02:23:28;;;;;;;30.90;23.38;;;;;;;23.73;99.83;100966.06;4972843;28;20034;-82
2023/06/23 02:25:54;;;;;;;29.55;22.17;;;;;;;23.64;99.68;100958.19;4973331;28;20411;-83
2023/06/23 02:28:21;;;;;;;32.05;24.13;;;;;;;23.68;99.30;100963.09;4987582;28;20046;-81
2023/06/23 02:30:47;;;;;;;38.20;23.80;;;;;;;23.63;99.10;100960.13;4972952;28;20035;-81
2023/06/23 02:33:12;;;;;;;26.05;22.45;;;;;;;23.55;97.16;100968.50;4973103;28;20104;-83
2023/06/23 02:35:38;;;;;;;28.83;22.58;;;;;;;23.44;96.34;100977.28;4972337;28;20038;-81
2023/06/23 02:38:08;;;;;;;37.20;22.73;;;;;;;23.36;96.37;100977.41;4972632;28;20953;-82
2023/06/23 02:40:38;;;;;;;99.60;30.95;;;;;;;23.35;97.48;100985.84;4973027;28;20027;-81
2023/06/23 02:43:17;;;;;;;42.50;23.48;;;;;;;23.39;98.07;100990.78;4973976;28;20039;-81
2023/06/23 02:45:47;;;;;;;30.13;23.10;;;;;;;23.43;98.39;100997.56;4974422;28;20034;-81
2023/06/23 02:48:19;;;;;;;33.15;23.25;;;;;;;23.47;98.19;100995.25;4973383;28;20046;-82
2023/06/23 02:50:47;;;;;;;28.88;22.90;;;;;;;23.43;98.21;100983.81;4977847;28;20400;-81
2023/06/23 02:53:21;;;;;;;40.72;23.65;;;;;;;23.49;98.22;100996.75;4980177;28;20049;-86
2023/06/23 02:55:49;;;;;;;27.38;22.77;;;;;;;23.48;98.49;100984.09;4972828;28;20462;-82
2023/06/23 02:58:17;;;;;;;41.47;24.70;;;;;;;23.51;98.35;100985.59;4952220;28;20124;-82
2023/06/23 03:00:44;;;;;;;30.95;23.58;;;;;;;23.47;98.70;100987.88;4992105;28;20125;-84
2023/06/23 03:03:14;;;;;;;33.88;22.90;;;;;;;23.50;98.74;100992.97;4992513;28;20042;-81
2023/06/23 03:05:40;;;;;;;36.42;24.13;;;;;;;23.50;99.19;100992.97;4991091;28;20034;-81
2023/06/23 03:08:06;;;;;;;27.88;23.35;;;;;;;23.51;98.95;100989.19;4993034;28;20114;-82
2023/06/23 03:10:31;;;;;;;39.45;25.42;;;;;;;23.47;99.11;100993.38;5005931;28;20268;-86
2023/06/23 03:12:59;;;;;;;42.53;23.42;;;;;;;23.52;99.24;100992.75;5012636;28;20037;-85
2023/06/23 03:15:26;;;;;;;30.80;25.25;;;;;;;23.57;99.21;100999.38;5012392;28;20094;-84
2023/06/23 03:17:58;;;;;;;32.05;23.38;;;;;;;23.55;98.36;100984.97;4995751;28;20039;-83
2023/06/23 03:20:37;;;;;;;73.32;26.30;;;;;;;23.64;98.01;100989.25;4993116;28;20045;-83
2023/06/23 03:23:11;;;;;;;47.85;24.83;;;;;;;23.70;98.30;100985.69;4994033;28;20046;-82
2023/06/23 03:25:39;;;;;;;37.40;23.73;;;;;;;23.82;98.12;100992.31;4994808;28;20026;-82
2023/06/23 03:28:09;;;;;;;48.88;22.60;;;;;;;23.85;97.29;100986.44;4992477;28;20046;-82
2023/06/23 03:30:40;;;;;;;54.00;26.23;;;;;;;23.92;96.88;100988.38;4991468;28;20042;-85
2023/06/23 03:33:18;;;;;;;69.38;29.23;;;;;;;23.95;97.14;100996.19;4991104;28;20054;-82
2023/06/23 03:35:44;;;;;;;56.28;26.55;;;;;;;23.91;97.06;100993.03;4991423;28;20038;-84
2023/06/23 03:38:18;;;;;;;40.33;23.40;;;;;;;24.02;97.16;100994.34;4991846;28;20054;-87
2023/06/23 03:41:01;;;;;;;43.40;26.00;;;;;;;24.07;97.17;100978.09;4992569;28;20038;-86
2023/06/23 03:44:00;;;;;;;35.90;21.50;;;;;;;24.22;97.14;100995.31;4994389;28;20470;-88
2023/06/23 03:46:46;;;;;;;36.55;21.85;;;;;;;24.27;97.23;100998.31;4961189;29;20035;-89
2023/06/23 03:49:13;;;;;;;56.10;23.33;;;;;;;24.31;97.09;100992.19;4971404;28;20047;-89
2023/06/23 03:51:42;;;;;;;28.83;21.23;;;;;;;24.30;97.16;100993.25;4960362;28;20039;-87
2023/06/23 03:54:09;;;;;;;45.75;21.38;;;;;;;24.28;97.08;100991.75;4949458;29;20459;-83
2023/06/23 03:56:37;;;;;;;27.95;20.60;;;;;;;24.33;96.98;100978.25;4950206;29;20061;-85
2023/06/23 03:59:05;;;;;;;43.30;22.30;;;;;;;24.24;97.66;100971.25;4949742;29;20515;-85
2023/06/23 04:01:32;;;;;;;35.80;22.13;;;;;;;24.21;98.23;100993.63;4950195;29;20053;-86
2023/06/23 04:03:59;;;;;;;42.15;22.02;;;;;;;24.14;99.20;101001.00;4949755;29;20067;-85
2023/06/23 04:06:27;;;;;;;41.85;23.70;;;;;;;24.05;99.96;100975.56;4953357;29;20054;-84
2023/06/23 04:08:57;;;;;;;44.45;24.23;;;;;;;24.14;100.00;100990.84;4958112;29;20450;-85
2023/06/23 04:11:25;;;;;;;30.58;21.80;;;;;;;24.07;100.00;100994.56;4954217;29;20059;-86
2023/06/23 04:13:55;;;;;;;35.83;22.33;;;;;;;24.08;100.00;101002.63;4950843;29;20035;-86
2023/06/23 04:16:21;;;;;;;41.22;24.13;;;;;;;24.01;100.00;100992.63;4949777;28;20044;-85
2023/06/23 04:18:49;;;;;;;29.63;22.35;;;;;;;23.98;100.00;100968.31;4950073;29;20038;-86
2023/06/23 04:21:17;;;;;;;41.10;22.65;;;;;;;24.07;100.00;100989.94;4954378;29;20047;-84
2023/06/23 04:23:44;;;;;;;59.63;25.02;;;;;;;24.20;100.00;101003.78;4990157;28;20049;-85
2023/06/23 04:26:12;;;;;;;45.38;23.75;;;;;;;24.25;100.00;101004.00;4994993;28;20042;-81
2023/06/23 04:28:41;;;;;;;31.67;22.75;;;;;;;24.27;100.00;101003.81;5004747;28;20030;-86
2023/06/23 04:31:08;;;;;;;48.58;25.77;;;;;;;24.19;100.00;101009.47;5004512;28;20097;-78
2023/06/23 04:33:35;;;;;;;44.92;24.42;;;;;;;24.29;100.00;101004.44;5012735;28;20030;-83
2023/06/23 04:36:15;;;;;;;33.47;24.05;;;;;;;24.33;100.00;101006.59;5010465;28;20037;-81
2023/06/23 04:38:47;;;;;;;38.15;22.58;;;;;;;24.50;100.00;101004.31;4958454;28;20041;-83
2023/06/23 04:41:18;;;;;;;;;;;;;;;24.46;99.61;101000.31;5027696;28;20042;-81
2023/06/23 04:44:09;;;;;;;33.85;22.52;;;;;;;24.42;99.10;100998.16;4968482;29;19926;-80
2023/06/23 04:46:39;;;;;;;50.40;23.27;;;;;;;24.45;97.97;101009.59;4961447;29;20074;-82
2023/06/23 04:49:10;;;;;;;31.08;20.88;;;;;;;24.47;97.86;101023.13;4948930;29;20126;-79
2023/06/23 04:51:49;;;;;;;52.78;23.63;;;;;;;24.38;97.07;101003.22;4947127;29;20039;-77
2023/06/23 04:54:20;;;;;;;53.67;24.92;;;;;;;24.38;96.61;101008.72;4947576;29;20046;-81
2023/06/23 04:56:49;;;;;;;65.00;23.70;;;;;;;24.39;97.06;100999.44;4947306;29;20182;-81
2023/06/23 04:59:20;;;;;;;33.63;21.83;;;;;;;24.52;96.41;101010.47;4948633;29;20075;-88
2023/06/23 05:01:46;;;;;;;33.70;18.23;;;;;;;24.30;92.79;101011.66;4951685;29;20525;-92
2023/06/23 05:04:14;;;;;;;45.47;21.02;;;;;;;24.29;93.99;101013.56;4934779;29;20167;-95
2023/06/23 05:06:43;;;;;;;35.08;22.58;;;;;;;24.10;94.37;100995.03;4951043;29;20496;-91
2023/06/23 05:09:11;;;;;;;29.17;19.90;;;;;;;24.25;94.90;101005.91;4950413;29;20045;-87
2023/06/23 05:11:38;;;;;;;36.15;19.10;;;;;;;24.22;94.43;101009.06;4957125;29;20066;-88
2023/06/23 05:14:06;;;;;;;25.75;18.75;;;;;;;24.23;94.05;101006.13;4956508;29;20424;-90
2023/06/23 05:16:33;;;;;;;259.02;43.40;;;;;;;24.30;94.58;101007.00;4950975;29;20571;-85
2023/06/23 05:18:59;;;;;;;27.15;16.17;;;;;;;24.24;91.01;101012.47;4947687;29;20043;-83
2023/06/23 05:21:27;;;;;;;25.55;17.30;;;;;;;24.15;90.49;100997.22;4978179;28;20048;-86
2023/06/23 05:23:56;;;;;;;19.75;14.13;;;;;;;24.30;89.42;101019.91;5011205;28;20050;-92
2023/06/23 05:26:24;;;;;;;86.07;23.60;;;;;;;24.30;87.69;101012.50;5008899;28;20118;-84
2023/06/23 05:28:53;;;;;;;25.52;16.05;;;;;;;24.34;88.12;101013.78;5011532;28;20046;-86
2023/06/23 05:31:21;;;;;;;30.08;15.73;;;;;;;24.46;86.45;101019.56;5013783;28;20096;-88
2023/06/23 05:33:48;;;;;;;29.80;16.92;;;;;;;24.56;86.04;101020.00;4979191;28;20053;-83
2023/06/23 05:36:16;;;;;;;49.33;17.98;;;;;;;24.53;85.17;101017.66;4995398;28;20027;-82
2023/06/23 05:38:45;;;;;;;36.95;16.52;;;;;;;24.53;85.79;101020.41;4996928;28;20101;-86
2023/06/23 05:41:10;;;;;;;38.13;17.50;;;;;;;24.58;85.69;101020.66;5014989;28;20042;-86
2023/06/23 05:43:37;;;;;;;37.08;18.27;;;;;;;24.48;85.58;101019.34;5016271;28;20086;-92
2023/06/23 05:46:08;;;;;;;56.15;20.92;;;;;;;24.63;85.59;101023.63;4982695;28;20053;-88
2023/06/23 05:48:49;;;;;;;54.70;18.65;;;;;;;24.80;84.44;101029.59;4993114;28;20030;-85
2023/06/23 05:51:20;;;;;;;43.05;15.80;;;;;;;24.76;83.33;101025.56;4995710;28;20042;-86
2023/06/23 05:53:53;;;;;;;138.65;26.02;;;;;;;24.86;82.92;101034.31;4996247;28;20057;-87
2023/06/23 05:56:31;;;;;;;20.23;15.35;;;;;;;24.75;83.87;101023.88;4997666;28;20113;-87
2023/06/23 05:59:01;;;;;;;60.33;21.33;;;;;;;24.65;84.71;100999.50;4994237;28;20074;-91
2023/06/23 06:01:30;;;;;;;72.82;21.63;;;;;;;25.02;84.53;101038.56;4993682;28;20042;-89
2023/06/23 06:04:04;;;;;;;32.80;17.42;;;;;;;25.03;84.03;101040.28;4996078;28;20109;-85
2023/06/23 06:06:34;;;;;;;39.35;17.23;;;;;;;25.08;83.67;101048.72;4996470;28;20101;-87
2023/06/23 06:09:00;;;;;;;24.45;16.10;;;;;;;25.06;83.53;101031.59;4996030;28;20451;-90
2023/06/23 06:11:28;;;;;;;25.38;16.75;;;;;;;25.21;83.37;101033.09;4995074;28;20048;-90
2023/06/23 06:13:57;;;;;;;35.97;15.93;;;;;;;25.35;83.20;101034.78;4992454;28;20113;-84
2023/06/23 06:16:23;;;;;;;96.13;21.83;;;;;;;25.25;81.76;101017.00;4993336;28;20046;-86
2023/06/23 06:18:51;;;;;;;19.13;16.70;;;;;;;25.29;82.11;101023.78;4975299;28;20490;-86
2023/06/23 06:21:17;;;;;;;24.52;18.23;;;;;;;25.43;82.39;101020.81;4992547;28;20038;-83
2023/06/23 06:23:45;;;;;;;57.72;19.27;;;;;;;25.60;81.75;101015.75;4944017;28;20042;-89
2023/06/23 06:26:13;;;;;;;31.27;16.98;;;;;;;25.43;79.74;101029.09;4993534;28;20169;-89
2023/06/23 06:28:41;;;;;;;58.88;18.58;;;;;;;25.66;79.71;101025.91;4992743;28;20038;-82
2023/06/23 06:31:07;;;;;;;30.88;15.55;;;;;;;25.72;78.64;101025.06;4992766;28;20042;-81
2023/06/23 06:33:35;;;;;;;36.00;15.18;;;;;;;25.75;77.17;101027.38;4993685;28;20402;-91
2023/06/23 06:36:04;;;;;;;28.45;14.68;;;;;;;25.72;74.54;101019.56;5026040;28;20097;-86
2023/06/23 06:38:35;;;;;;;18.55;13.07;;;;;;;25.74;70.75;101022.09;5031372;28;20038;-86
2023/06/23 06:41:04;;;;;;;44.83;15.88;;;;;;;25.75;70.57;101019.13;5025737;28;20807;-83
2023/06/23 06:43:30;;;;;;;114.55;22.58;;;;;;;25.77;73.06;101028.03;5013153;28;20098;-84
2023/06/23 06:45:56;;;;;;;106.45;21.50;;;;;;;25.57;73.77;101012.56;5010196;28;20089;-83
2023/06/23 06:48:23;;;;;;;42.97;15.20;;;;;;;25.70;73.84;101027.19;5009982;28;20030;-82
2023/06/23 06:50:50;;;;;;;32.67;14.10;;;;;;;25.75;71.31;101029.28;5010229;28;20483;-82
2023/06/23 06:53:17;;;;;;;23.05;13.90;;;;;;;25.74;73.61;100995.41;5009641;28;20032;-82
2023/06/23 06:55:44;;;;;;;32.08;12.80;;;;;;;25.81;68.89;100992.59;5001111;28;20038;-91
2023/06/23 06:58:10;;;;;;;16.77;11.50;;;;;;;25.81;61.00;101009.13;5004570;28;20141;-91
2023/06/23 07:00:35;;;;;;;24.05;13.82;;;;;;;25.80;63.21;100994.53;5024432;28;20038;-90
2023/06/23 07:03:03;;;;;;;22.08;13.98;;;;;;;25.89;64.60;101004.28;5013362;28;20079;-91
2023/06/23 07:05:28;;;;;;;27.77;13.27;;;;;;;25.99;64.59;100999.13;5014054;28;20030;-92
2023/06/23 07:07:54;;;;;;;43.85;13.68;;;;;;;26.16;62.85;101012.50;5004179;28;20073;-92
2023/06/23 07:10:20;;;;;;;33.83;12.68;;;;;;;26.20;60.98;101011.84;4997268;28;20029;-92
2023/06/23 07:12:45;;;;;;;20.08;12.15;;;;;;;26.06;60.87;100974.31;5014512;28;20033;-92
2023/06/23 07:15:11;;;;;;;17.20;11.45;;;;;;;26.22;60.66;101011.63;4996119;28;21157;-92
2023/06/23 07:17:37;;;;;;;33.75;12.50;;;;;;;26.23;59.40;101007.81;5013516;28;20064;-92
2023/06/23 07:20:03;;;;;;;23.92;11.18;;;;;;;26.20;59.37;101005.50;5012955;28;20440;-81
2023/06/23 07:22:29;;;;;;;27.30;12.48;;;;;;;26.18;56.98;101002.94;5011340;28;20133;-84
2023/06/23 07:24:55;;;;;;;21.13;11.15;;;;;;;26.29;59.11;101005.03;5009800;28;20069;-82
2023/06/23 07:27:21;;;;;;;24.15;13.02;;;;;;;26.31;60.87;101002.03;5011139;28;20053;-82
2023/06/23 07:29:47;;;;;;;39.50;15.15;;;;;;;26.43;62.73;101006.66;5013050;28;20061;-86
2023/06/23 07:32:14;;;;;;;26.63;13.15;;;;;;;26.39;64.43;101015.59;4999953;28;20116;-86
2023/06/23 07:34:40;;;;;;;31.05;13.00;;;;;;;26.34;63.28;101016.25;5010956;28;20089;-86
2023/06/23 07:37:08;;;;;;;14.60;11.30;;;;;;;26.33;63.09;101010.94;5010319;28;20038;-85
2023/06/23 07:39:35;;;;;;;20.98;12.27;;;;;;;26.47;63.29;101018.97;5013150;28;20057;-86
2023/06/23 07:42:00;;;;;;;16.70;11.32;;;;;;;26.50;61.55;101012.16;5010012;28;20030;-85
2023/06/23 07:44:26;;;;;;;19.63;12.13;;;;;;;26.51;60.99;101008.34;4993196;28;20869;-85
2023/06/23 07:46:51;;;;;;;16.45;12.07;;;;;;;26.55;62.49;101009.56;5011735;28;20121;-85
2023/06/23 07:49:17;;;;;;;56.92;14.25;;;;;;;26.52;63.02;101016.38;5012260;28;20041;-85
2023/06/23 07:51:42;;;;;;;22.20;11.95;;;;;;;26.46;61.33;101011.72;5023627;28;20052;-87
2023/06/23 07:54:08;;;;;;;64.85;16.58;;;;;;;26.46;62.51;101017.25;5032470;28;20069;-86
2023/06/23 07:56:33;;;;;;;25.13;12.00;;;;;;;26.43;63.72;101005.81;5031687;28;20117;-87
2023/06/23 07:58:59;;;;;;;32.00;13.75;;;;;;;26.47;63.99;100996.03;5024650;28;20048;-87
2023/06/23 08:01:24;;;;;;;16.42;9.27;;;;;;;26.58;60.54;101016.56;5021200;28;20034;-85
2023/06/23 08:03:49;;;;;;;29.83;13.43;;;;;;;26.75;62.91;101010.31;5018010;28;20042;-85
2023/06/23 08:06:18;;;;;;;17.20;10.48;;;;;;;26.69;62.11;101000.16;5013699;28;20096;-86
2023/06/23 08:08:47;;;;;;;15.02;8.20;;;;;;;26.73;58.18;101006.06;5011132;28;20041;-86
2023/06/23 08:11:13;;;;;;;18.67;8.85;;;;;;;26.82;58.53;101010.28;5010487;28;20045;-85
2023/06/23 08:13:38;;;;;;;20.85;11.93;;;;;;;26.92;58.01;101011.50;4992711;28;20649;-85
2023/06/23 08:16:04;;;;;;;15.38;9.63;;;;;;;26.92;56.50;101010.66;4998270;28;20036;-85
2023/06/23 08:18:29;;;;;;;188.23;26.27;;;;;;;26.86;54.83;101004.13;4993279;28;20037;-86
2023/06/23 08:20:55;;;;;;;24.50;9.82;;;;;;;26.96;56.40;101007.25;4992611;28;20034;-86
2023/06/23 08:23:20;;;;;;;43.38;10.60;;;;;;;26.76;57.65;100995.44;5010836;28;20096;-86
2023/06/23 08:25:47;;;;;;;36.10;10.40;;;;;;;26.90;59.71;100990.72;5011043;28;20125;-84
2023/06/23 08:28:12;;;;;;;16.42;10.75;;;;;;;26.91;60.86;101009.81;5010987;28;20077;-85
2023/06/23 08:30:38;;;;;;;31.83;10.55;;;;;;;26.94;56.07;100991.97;5022099;28;20422;-85
2023/06/23 08:33:03;;;;;;;19.48;9.18;;;;;;;26.82;57.79;100983.53;5029005;28;20493;-86
2023/06/23 08:35:29;;;;;;;20.40;10.88;;;;;;;27.08;59.33;100998.25;5018201;28;20041;-85
2023/06/23 08:37:54;;;;;;;10.95;7.50;;;;;;;27.07;53.86;100996.53;4992323;28;20231;-84
2023/06/23 08:40:20;;;;;;;16.15;7.90;;;;;;;27.00;55.62;100991.91;5009801;28;20092;-85
2023/06/23 08:42:45;;;;;;;18.45;8.60;;;;;;;27.00;54.28;100980.88;5009842;28;20038;-86
2023/06/23 08:45:12;;;;;;;40.88;10.68;;;;;;;26.88;53.47;100977.13;5010101;28;20675;-85
2023/06/23 08:47:51;;;;;;;14.43;7.95;;;;;;;26.87;53.15;100996.69;5008722;28;20034;-86
2023/06/23 08:50:16;;;;;;;17.98;8.35;;;;;;;26.88;52.49;100981.81;4992060;28;20033;-85
2023/06/23 08:52:42;;;;;;;11.00;7.47;;;;;;;26.95;53.47;100983.47;4991400;28;20490;-85
2023/06/23 08:55:09;;;;;;;18.88;9.45;;;;;;;27.05;53.14;100994.00;5009093;28;20038;-86
2023/06/23 08:57:37;;;;;;;28.00;9.48;;;;;;;27.06;52.53;100970.88;5009680;28;20045;-86
2023/06/23 09:00:03;;;;;;;14.60;8.98;;;;;;;27.28;54.31;100990.63;5009199;28;20061;-86
2023/06/23 09:02:30;;;;;;;14.45;9.00;;;;;;;27.39;55.66;100990.78;5008906;28;20034;-86
2023/06/23 09:04:55;;;;;;;26.33;8.80;;;;;;;27.34;54.19;100981.44;5013621;28;20049;-85
2023/06/23 09:07:21;;;;;;;108.60;17.10;;;;;;;27.44;53.64;100979.91;4996098;28;20038;-85
2023/06/23 09:09:47;;;;;;;10.52;6.57;;;;;;;27.46;51.69;100979.69;5020504;28;20604;-83
2023/06/23 09:12:20;;;;;;;24.48;7.50;;;;;;;27.46;51.58;100985.22;5018092;28;20057;-86
2023/06/23 09:14:47;;;;;;;12.27;8.40;;;;;;;27.31;53.52;100982.75;5013127;28;20042;-84
2023/06/23 09:17:14;;;;;;;16.65;8.63;;;;;;;27.39;53.68;100993.53;4996030;28;20038;-85
2023/06/23 09:19:42;;;;;;;18.83;8.55;;;;;;;27.48;53.54;100981.16;5019248;28;20034;-84
2023/06/23 09:22:09;;;;;;;21.27;8.77;;;;;;;27.24;54.06;100970.06;4997403;28;20068;-86
2023/06/23 09:24:43;;;;;;;18.98;7.78;;;;;;;27.18;54.21;100948.88;5014485;28;20033;-85
2023/06/23 09:27:10;;;;;;;20.40;9.05;;;;;;;27.38;53.81;100963.34;5022780;28;20026;-87
2023/06/23 09:29:38;;;;;;;17.35;8.40;;;;;;;27.53;55.45;100959.19;5032337;28;20053;-85
2023/06/23 09:32:04;;;;;;;21.70;8.40;;;;;;;27.68;53.11;100975.41;5023694;28;20111;-86
2023/06/23 09:34:33;;;;;;;16.30;9.50;;;;;;;27.64;56.47;100963.16;5019063;28;20033;-85
2023/06/23 09:37:33;;;;;;;13.20;7.25;;;;;;;27.37;54.78;100987.38;5015360;28;20034;-85
2023/06/23 09:39:58;;;;;;;16.48;7.28;;;;;;;27.36;56.15;100980.16;4936012;29;20050;-85
2023/06/23 09:42:24;;;;;;;15.82;8.85;;;;;;;27.52;57.24;100981.56;4933489;29;20036;-84
2023/06/23 09:44:50;;;;;;;20.75;9.10;;;;;;;27.58;57.50;100968.72;4934550;29;20040;-84
2023/06/23 09:47:18;;;;;;;15.48;8.57;;;;;;;27.63;55.39;100964.22;4933065;29;20555;-84
2023/06/23 09:49:46;;;;;;;14.88;8.50;;;;;;;27.78;57.62;100983.19;4917018;29;20035;-85
2023/06/23 09:52:31;;;;;;;13.73;8.60;;;;;;;27.76;56.09;100974.28;4933640;29;20044;-85
2023/06/23 09:54:56;;;;;;;28.33;10.82;;;;;;;27.82;56.83;100988.03;4932613;29;20054;-86
2023/06/23 09:57:22;;;;;;;13.40;8.30;;;;;;;27.68;56.02;100988.38;4932324;29;20051;-85
2023/06/23 09:59:52;;;;;;;15.55;8.35;;;;;;;27.71;54.45;100987.94;4932302;29;20047;-85
2023/06/23 10:02:23;;;;;;;17.08;8.80;;;;;;;27.70;56.14;100981.59;4933152;29;20044;-85
2023/06/23 10:04:49;;;;;;;16.73;9.23;;;;;;;27.66;57.13;100963.75;4932228;29;20175;-87
2023/06/23 10:07:22;;;;;;;10.68;8.63;;;;;;;27.75;57.70;100959.63;4932411;29;20894;-84
2023/06/23 10:09:50;;;;;;;16.48;9.07;;;;;;;27.95;57.38;100974.06;4932654;29;20134;-84
2023/06/23 10:12:19;;;;;;;15.77;8.57;;;;;;;27.87;57.09;100963.31;4932529;29;20059;-85
2023/06/23 10:14:46;;;;;;;12.68;8.88;;;;;;;27.92;55.33;100973.69;4931993;29;20444;-85
2023/06/23 10:17:12;;;;;;;12.05;8.23;;;;;;;28.02;55.59;100974.84;4992359;28;20479;-86
2023/06/23 10:19:37;;;;;;;28.15;8.55;;;;;;;28.18;55.11;100978.09;5014973;28;20038;-85
2023/06/23 10:22:03;;;;;;;18.75;7.78;;;;;;;28.31;51.11;100980.69;5019377;28;20121;-85
2023/06/23 10:24:30;;;;;;;18.83;8.45;;;;;;;28.03;51.67;100957.16;5025678;28;20537;-84
2023/06/23 10:26:58;;;;;;;11.70;8.00;;;;;;;27.98;51.59;100970.81;5021343;28;20030;-85
2023/06/23 10:29:24;;;;;;;17.40;8.85;;;;;;;27.99;52.04;100958.69;5020385;28;20042;-84
2023/06/23 10:31:55;;;;;;;23.30;9.45;;;;;;;28.17;53.09;100965.31;5011625;28;20040;-85
2023/06/23 10:34:22;;;;;;;19.67;8.52;;;;;;;28.32;52.38;100954.69;5012360;28;20044;-85
2023/06/23 10:36:51;;;;;;;11.65;8.52;;;;;;;28.18;52.72;100944.88;5012191;28;20051;-84
2023/06/23 10:39:19;;;;;;;13.73;8.50;;;;;;;28.41;53.18;100956.06;5012277;28;20038;-83
2023/06/23 10:41:47;;;;;;;17.13;9.00;;;;;;;28.48;52.15;100962.38;5012460;28;20457;-86
2023/06/23 10:44:15;;;;;;;11.90;8.27;;;;;;;28.53;52.27;100951.44;5011982;28;20025;-85
2023/06/23 10:46:41;;;;;;;17.80;7.72;;;;;;;28.69;51.07;100961.88;5012731;28;20073;-86
2023/06/23 10:49:07;;;;;;;14.27;8.07;;;;;;;28.63;52.44;100951.72;5012216;28;20034;-85
2023/06/23 10:51:34;;;;;;;22.20;7.32;;;;;;;28.48;52.02;100946.59;5013268;28;20033;-85
2023/06/23 10:54:04;;;;;;;12.55;8.25;;;;;;;28.60;53.00;100954.94;5011718;28;20033;-86
2023/06/23 10:56:38;;;;;;;23.35;8.30;;;;;;;28.77;52.56;100956.03;5011828;28;20141;-86
2023/06/23 10:59:24;;;;;;;14.10;8.15;;;;;;;28.69;53.19;100939.72;5011493;28;20050;-84
2023/06/23 11:01:59;;;;;;;12.25;7.50;;;;;;;28.72;51.76;100949.47;5011421;28;20030;-85
2023/06/23 11:04:28;;;;;;;14.15;7.53;;;;;;;28.42;53.58;100947.53;5013696;28;20069;-84
2023/06/23 11:07:08;;;;;;;11.80;7.47;;;;;;;28.56;52.30;100939.91;5006432;28;20017;-87
2023/06/23 11:09:52;;;;;;;24.05;8.60;;;;;;;28.61;53.36;100938.13;5031592;28;20061;-85
2023/06/23 11:12:33;;;;;;;13.80;8.18;;;;;;;28.77;53.31;100933.88;5021540;28;20042;-87
2023/06/23 11:15:12;;;;;;;188.90;26.60;;;;;;;28.71;55.00;100923.75;5015452;28;20026;-84
2023/06/23 11:18:01;;;;;;;20.52;8.20;;;;;;;28.71;54.19;100945.91;5021580;28;20038;-85
2023/06/23 11:20:31;;;;;;;35.55;9.38;;;;;;;28.56;55.75;100937.16;5019852;28;20030;-86
2023/06/23 11:23:08;;;;;;;9.80;7.55;;;;;;;28.62;55.22;100938.97;5009619;28;20053;-85